Time;durP1;ratioP1;P1;durP2;ratioP2;P2;SDS_P1;SDS_P2;PMS_P1;PMS_P2;Temp;Humidity;BMP_temperature;BMP_pressure;BME280_temperature;BME280_humidity;BME280_pressure;Samples;Min_cycle;Max_cycle;Signal;HPM_P1;HPM_P2
2021/05/27 00:01:07;;;;;;;1.00;0.60;;;23.40;39.00;;;;;;5012443;28;20404;-63
2021/05/27 00:03:33;;;;;;;0.90;0.53;;;23.40;39.10;;;;;;5012340;28;20384;-63
2021/05/27 00:05:58;;;;;;;1.33;0.65;;;23.40;39.10;;;;;;5012466;28;20404;-62
2021/05/27 00:08:24;;;;;;;0.63;0.40;;;23.40;39.70;;;;;;5012589;28;20757;-63
2021/05/27 00:10:50;;;;;;;0.80;0.50;;;23.40;39.10;;;;;;5012086;28;20820;-63
2021/05/27 00:13:15;;;;;;;0.80;0.40;;;23.40;39.10;;;;;;5012500;28;20393;-63
2021/05/27 00:15:41;;;;;;;1.00;0.40;;;23.40;39.10;;;;;;5012224;28;20393;-60
2021/05/27 00:18:07;;;;;;;1.10;0.50;;;23.40;39.10;;;;;;5012355;28;20392;-63
2021/05/27 00:20:33;;;;;;;1.00;0.50;;;23.40;39.10;;;;;;5011982;28;20400;-63
2021/05/27 00:22:59;;;;;;;0.88;0.40;;;23.30;39.00;;;;;;5012261;28;20479;-64
2021/05/27 00:25:24;;;;;;;0.57;0.30;;;23.30;39.00;;;;;;5012213;28;20473;-63
2021/05/27 00:27:52;;;;;;;1.43;0.47;;;23.40;38.90;;;;;;5011985;28;20474;-63
2021/05/27 00:30:19;;;;;;;0.57;0.30;;;23.40;39.00;;;;;;5011947;28;20392;-63
2021/05/27 00:32:45;;;;;;;1.98;0.45;;;23.50;39.10;;;;;;5011564;28;20397;-62
2021/05/27 00:35:12;;;;;;;1.48;0.40;;;23.50;39.00;;;;;;5011706;28;20753;-62
2021/05/27 00:37:38;;;;;;;0.82;0.32;;;23.50;38.90;;;;;;5012121;28;20392;-62
2021/05/27 00:40:07;;;;;;;0.80;0.40;;;23.60;38.80;;;;;;5012080;28;20468;-62
2021/05/27 00:42:33;;;;;;;0.82;0.32;;;23.60;38.70;;;;;;5011343;28;20997;-62
2021/05/27 00:45:04;;;;;;;0.60;0.40;;;23.60;38.60;;;;;;5010849;28;20400;-63
2021/05/27 00:47:30;;;;;;;0.93;0.30;;;23.60;38.60;;;;;;5011952;28;20417;-61
2021/05/27 00:49:56;;;;;;;0.77;0.30;;;23.60;38.60;;;;;;5011934;28;20446;-62
2021/05/27 00:52:22;;;;;;;1.77;0.50;;;23.60;38.70;;;;;;5011955;28;20396;-63
2021/05/27 00:54:49;;;;;;;1.35;0.40;;;23.60;38.70;;;;;;5011422;28;20415;-63
2021/05/27 00:57:30;;;;;;;1.55;0.43;;;23.60;38.90;;;;;;5011841;28;20450;-63
2021/05/27 00:59:56;;;;;;;1.27;0.40;;;23.60;38.90;;;;;;5011957;28;20381;-63
2021/05/27 01:02:22;;;;;;;2.35;0.50;;;23.60;38.80;;;;;;5010521;28;20399;-63
2021/05/27 01:04:47;;;;;;;1.10;0.40;;;23.60;38.90;;;;;;5011369;28;21386;-64
2021/05/27 01:07:14;;;;;;;2.80;0.40;;;23.60;38.80;;;;;;5011684;28;20471;-63
2021/05/27 01:09:41;;;;;;;2.17;0.40;;;23.60;38.70;;;;;;5011842;28;20413;-64
2021/05/27 01:12:08;;;;;;;0.43;0.30;;;23.60;38.70;;;;;;5011693;28;20420;-64
2021/05/27 01:17:18;;;;;;;0.55;0.40;;;23.60;38.70;;;;;;5016039;28;20730;-64
2021/05/27 01:19:44;;;;;;;0.60;0.33;;;23.60;38.70;;;;;;5015621;28;20389;-61
2021/05/27 01:22:09;;;;;;;1.15;0.40;;;23.60;38.70;;;;;;5014445;28;20446;-63
2021/05/27 01:24:35;;;;;;;0.60;0.30;;;23.60;38.70;;;;;;5015192;28;20385;-63
2021/05/27 01:27:01;;;;;;;0.65;0.30;;;23.60;38.70;;;;;;5015537;28;20451;-63
2021/05/27 01:29:26;;;;;;;0.80;0.37;;;23.60;38.70;;;;;;5014320;28;20401;-63
2021/05/27 01:31:52;;;;;;;0.75;0.30;;;23.60;38.60;;;;;;5015403;28;20730;-63
2021/05/27 01:34:17;;;;;;;0.57;0.30;;;23.60;39.20;;;;;;5015415;28;20754;-62
2021/05/27 01:36:45;;;;;;;0.80;0.30;;;23.60;38.60;;;;;;5013706;28;20389;-63
2021/05/27 01:39:10;;;;;;;0.73;0.30;;;23.60;39.20;;;;;;5015338;28;20400;-62
2021/05/27 01:41:36;;;;;;;1.25;0.40;;;23.60;38.60;;;;;;5015343;28;20393;-63
2021/05/27 01:44:02;;;;;;;0.63;0.35;;;23.60;38.60;;;;;;5015027;28;20908;-63
2021/05/27 01:46:28;;;;;;;1.10;0.50;;;23.60;38.50;;;;;;5015264;28;20416;-63
2021/05/27 01:48:53;;;;;;;0.50;0.20;;;23.60;38.50;;;;;;5014727;28;20468;-63
2021/05/27 01:51:19;;;;;;;0.68;0.30;;;23.60;38.60;;;;;;5015187;28;20924;-62
2021/05/27 01:53:46;;;;;;;0.83;0.30;;;23.60;38.60;;;;;;5015056;28;20395;-63
2021/05/27 01:56:12;;;;;;;0.60;0.30;;;23.60;38.60;;;;;;5015110;28;20887;-63
2021/05/27 01:58:38;;;;;;;0.43;0.20;;;23.60;38.50;;;;;;5013313;28;20471;-64
2021/05/27 02:01:05;;;;;;;0.60;0.20;;;23.50;38.50;;;;;;5014954;28;20408;-63
2021/05/27 02:03:30;;;;;;;0.80;0.30;;;23.60;38.50;;;;;;5014848;28;20388;-63
2021/05/27 02:05:56;;;;;;;0.40;0.20;;;23.50;38.50;;;;;;5014816;28;20927;-63
2021/05/27 02:08:21;;;;;;;0.50;0.20;;;23.60;38.50;;;;;;5014840;28;20884;-64
2021/05/27 02:10:47;;;;;;;0.73;0.30;;;23.50;38.50;;;;;;5014348;28;20388;-63
2021/05/27 02:13:13;;;;;;;0.50;0.30;;;23.50;38.50;;;;;;5014822;28;20401;-64
2021/05/27 02:15:39;;;;;;;0.20;0.10;;;23.50;38.50;;;;;;5014614;28;20804;-63
2021/05/27 02:18:05;;;;;;;0.32;0.20;;;23.50;38.50;;;;;;5013226;28;20408;-64
2021/05/27 02:20:31;;;;;;;0.63;0.20;;;23.50;38.40;;;;;;5014685;28;20389;-64
2021/05/27 02:22:57;;;;;;;0.50;0.20;;;23.50;38.40;;;;;;5014327;28;20471;-64
2021/05/27 02:25:23;;;;;;;0.30;0.20;;;23.60;38.40;;;;;;5013949;28;20830;-64
2021/05/27 02:27:49;;;;;;;0.43;0.20;;;23.50;38.30;;;;;;5014289;28;20436;-63
2021/05/27 02:30:15;;;;;;;0.70;0.30;;;23.60;38.40;;;;;;5014450;28;20464;-63
2021/05/27 02:32:41;;;;;;;0.47;0.20;;;23.50;38.30;;;;;;5013738;28;20419;-64
2021/05/27 02:35:07;;;;;;;0.50;0.30;;;23.50;38.30;;;;;;5014366;28;20380;-64
2021/05/27 02:37:33;;;;;;;0.30;0.20;;;23.50;38.30;;;;;;5014257;28;20393;-62
2021/05/27 02:39:59;;;;;;;0.60;0.30;;;23.50;38.30;;;;;;5014251;28;20431;-64
2021/05/27 02:42:24;;;;;;;0.85;0.35;;;23.50;38.30;;;;;;5014015;28;20904;-64
2021/05/27 02:44:50;;;;;;;0.30;0.20;;;23.50;38.40;;;;;;5013748;28;20381;-64
2021/05/27 02:47:16;;;;;;;0.50;0.20;;;23.50;38.40;;;;;;5014104;28;20427;-64
2021/05/27 02:49:42;;;;;;;0.67;0.30;;;23.50;38.40;;;;;;5014178;28;20396;-63
2021/05/27 02:52:07;;;;;;;0.40;0.20;;;23.50;38.30;;;;;;5014030;28;20393;-64
2021/05/27 02:54:33;;;;;;;0.63;0.30;;;23.50;38.40;;;;;;5013975;28;20418;-63
2021/05/27 02:56:59;;;;;;;0.60;0.20;;;23.50;38.50;;;;;;5013593;28;20400;-63
2021/05/27 02:59:26;;;;;;;0.80;0.30;;;23.50;38.40;;;;;;5013833;28;20396;-63
2021/05/27 03:01:52;;;;;;;1.00;0.30;;;23.50;38.40;;;;;;5013886;28;20404;-63
2021/05/27 03:04:18;;;;;;;0.57;0.20;;;23.50;38.40;;;;;;5013848;28;20389;-63
2021/05/27 03:06:44;;;;;;;0.60;0.30;;;23.40;38.40;;;;;;5013154;28;20408;-63
2021/05/27 03:09:10;;;;;;;0.40;0.20;;;23.40;38.40;;;;;;5013782;28;20389;-63
2021/05/27 03:11:35;;;;;;;2.10;0.47;;;23.50;38.40;;;;;;5012352;28;20397;-63
2021/05/27 03:14:01;;;;;;;1.17;0.20;;;23.50;38.90;;;;;;5013587;28;20745;-63
2021/05/27 03:16:27;;;;;;;0.45;0.20;;;23.40;38.70;;;;;;5013588;28;20397;-63
2021/05/27 03:18:52;;;;;;;0.80;0.30;;;23.40;39.00;;;;;;5012987;28;20484;-63
2021/05/27 03:21:18;;;;;;;1.23;0.30;;;23.50;38.90;;;;;;5013423;28;20865;-63
2021/05/27 03:23:44;;;;;;;1.70;0.30;;;23.40;39.40;;;;;;5013060;28;20389;-61
2021/05/27 03:26:10;;;;;;;1.13;0.20;;;23.40;39.80;;;;;;5006542;28;20531;-58
2021/05/27 03:28:35;;;;;;;0.75;0.20;;;23.50;39.50;;;;;;4981204;28;20516;-63
2021/05/27 03:31:01;;;;;;;4.30;0.30;;;23.60;39.90;;;;;;5012326;28;20404;-63
2021/05/27 03:33:27;;;;;;;2.08;0.30;;;23.60;40.40;;;;;;5012453;28;20523;-62
2021/05/27 03:35:52;;;;;;;2.47;0.20;;;23.60;40.00;;;;;;5012507;28;20401;-61
2021/05/27 03:38:18;;;;;;;1.63;0.30;;;23.60;40.50;;;;;;5012496;28;20396;-63
2021/05/27 03:40:43;;;;;;;4.20;0.50;;;23.60;40.50;;;;;;5012010;28;21020;-63
2021/05/27 03:43:09;;;;;;;2.67;0.30;;;23.60;40.40;;;;;;5012549;28;20413;-63
2021/05/27 03:45:35;;;;;;;2.13;0.40;;;23.60;41.00;;;;;;5012933;28;20742;-63
2021/05/27 03:48:01;;;;;;;9.80;0.80;;;23.60;41.30;;;;;;5012537;28;20424;-63
2021/05/27 03:50:28;;;;;;;2.17;0.40;;;23.70;40.80;;;;;;5012913;28;20885;-62
2021/05/27 03:52:54;;;;;;;3.33;0.30;;;23.60;40.50;;;;;;5012363;28;20471;-63
2021/05/27 03:55:22;;;;;;;1.90;0.30;;;23.60;39.40;;;;;;5012824;28;20877;-63
2021/05/27 03:57:49;;;;;;;5.93;0.40;;;23.60;39.20;;;;;;5012035;28;20961;-64
2021/05/27 04:03:03;;;;;;;3.53;0.50;;;23.50;39.90;;;;;;5012329;28;20467;-64
2021/05/27 04:08:13;;;;;;;5.95;0.60;;;23.50;39.40;;;;;;5012465;28;20981;-63
2021/05/27 04:10:39;;;;;;;4.78;0.57;;;23.50;39.40;;;;;;5012077;28;20464;-61
2021/05/27 04:13:05;;;;;;;5.88;0.70;;;23.50;39.40;;;;;;5012084;28;20483;-63
2021/05/27 04:15:35;;;;;;;3.00;0.50;;;23.50;39.40;;;;;;5012349;28;20400;-64
2021/05/27 04:18:08;;;;;;;3.22;0.40;;;23.50;39.30;;;;;;5012084;28;20408;-64
2021/05/27 04:20:37;;;;;;;3.38;0.50;;;23.50;39.40;;;;;;5012456;28;20411;-64
2021/05/27 04:23:05;;;;;;;3.55;0.43;;;23.40;39.30;;;;;;5011742;28;20393;-64
2021/05/27 04:25:31;;;;;;;2.63;0.45;;;23.40;39.20;;;;;;5012294;28;20401;-64
2021/05/27 04:27:58;;;;;;;4.32;0.60;;;23.40;39.10;;;;;;5012082;28;20421;-63
2021/05/27 04:30:26;;;;;;;3.10;0.47;;;23.50;39.20;;;;;;5012330;28;20381;-64
2021/05/27 04:33:06;;;;;;;3.70;0.50;;;23.40;39.20;;;;;;5011524;28;20748;-62
2021/05/27 04:35:33;;;;;;;1.67;0.40;;;23.40;39.10;;;;;;5012128;28;20385;-64
2021/05/27 04:38:07;;;;;;;1.45;0.30;;;23.40;39.10;;;;;;5012056;28;21260;-63
2021/05/27 04:40:34;;;;;;;1.67;0.30;;;23.40;39.00;;;;;;5012065;28;20756;-63
2021/05/27 04:43:01;;;;;;;1.60;0.30;;;23.40;39.00;;;;;;5011297;28;21039;-63
2021/05/27 04:45:26;;;;;;;3.28;0.43;;;23.40;39.00;;;;;;5012057;28;20487;-63
2021/05/27 04:47:52;;;;;;;1.10;0.30;;;23.40;39.00;;;;;;5011758;28;20507;-64
2021/05/27 04:50:19;;;;;;;1.77;0.30;;;23.40;39.00;;;;;;5011850;28;20416;-63
2021/05/27 04:52:45;;;;;;;4.45;0.40;;;23.40;39.00;;;;;;5011602;28;20880;-64
2021/05/27 04:55:12;;;;;;;0.68;0.30;;;23.40;39.00;;;;;;5011642;28;20377;-63
2021/05/27 04:57:38;;;;;;;0.60;0.30;;;23.40;38.90;;;;;;5011797;28;20393;-62
2021/05/27 05:00:07;;;;;;;0.68;0.30;;;23.40;38.90;;;;;;5011846;28;20464;-64
2021/05/27 05:02:32;;;;;;;1.73;0.25;;;23.40;38.90;;;;;;5011713;28;21023;-63
2021/05/27 05:04:58;;;;;;;2.28;0.30;;;23.40;38.90;;;;;;5011337;28;20483;-63
2021/05/27 05:07:24;;;;;;;0.87;0.30;;;23.40;38.90;;;;;;5011694;28;20524;-64
2021/05/27 05:09:49;;;;;;;1.10;0.50;;;23.40;38.90;;;;;;5011746;28;20885;-63
2021/05/27 05:12:15;;;;;;;1.42;0.30;;;23.40;38.90;;;;;;5011713;28;20392;-64
2021/05/27 05:14:41;;;;;;;0.70;0.30;;;23.40;38.90;;;;;;5011709;28;20388;-63
2021/05/27 05:17:06;;;;;;;0.88;0.30;;;23.40;38.80;;;;;;5011239;28;20428;-64
2021/05/27 05:19:32;;;;;;;1.85;0.30;;;23.40;38.80;;;;;;5011638;28;20380;-63
2021/05/27 05:21:58;;;;;;;0.90;0.30;;;23.40;38.80;;;;;;5011554;28;20403;-64
2021/05/27 05:24:24;;;;;;;1.63;0.30;;;23.40;38.80;;;;;;5011644;28;20865;-64
2021/05/27 05:26:50;;;;;;;1.00;0.30;;;23.40;38.80;;;;;;5011010;28;20444;-64
2021/05/27 05:29:16;;;;;;;0.65;0.20;;;23.40;38.80;;;;;;5010412;28;20749;-63
2021/05/27 05:31:41;;;;;;;0.30;0.20;;;23.40;38.70;;;;;;5011565;28;20384;-63
2021/05/27 05:34:07;;;;;;;0.95;0.30;;;23.40;38.70;;;;;;5011554;28;20389;-64
2021/05/27 05:36:33;;;;;;;1.00;0.30;;;23.40;38.80;;;;;;5011518;28;20463;-63
2021/05/27 05:38:58;;;;;;;0.95;0.30;;;23.40;38.70;;;;;;5011028;28;20919;-63
2021/05/27 05:41:24;;;;;;;0.47;0.20;;;23.40;38.70;;;;;;5011565;28;20393;-64
2021/05/27 05:43:50;;;;;;;0.80;0.30;;;23.40;38.70;;;;;;5009996;28;20452;-64
2021/05/27 05:46:15;;;;;;;0.93;0.30;;;23.40;38.70;;;;;;5011281;28;20884;-64
2021/05/27 05:48:41;;;;;;;0.60;0.30;;;23.40;38.70;;;;;;5011116;28;20748;-63
2021/05/27 05:51:07;;;;;;;0.70;0.20;;;23.30;38.70;;;;;;5009679;28;20393;-65
2021/05/27 05:53:34;;;;;;;0.80;0.30;;;23.40;38.70;;;;;;5011366;28;20912;-63
2021/05/27 05:55:59;;;;;;;0.60;0.20;;;23.30;38.60;;;;;;5011304;28;20421;-64
2021/05/27 05:58:26;;;;;;;0.50;0.20;;;23.30;38.60;;;;;;5011293;28;20428;-64
2021/05/27 06:00:53;;;;;;;0.55;0.30;;;23.30;38.60;;;;;;5014064;28;20831;-64
2021/05/27 06:03:19;;;;;;;1.50;0.40;;;23.30;39.20;;;;;;5015388;28;20432;-64
2021/05/27 06:05:45;;;;;;;0.70;0.20;;;23.30;38.60;;;;;;5014561;28;20427;-64
2021/05/27 06:08:10;;;;;;;0.80;0.22;;;23.30;38.60;;;;;;5014800;28;20520;-60
2021/05/27 06:10:36;;;;;;;0.53;0.30;;;23.30;38.60;;;;;;5014838;28;20940;-64
2021/05/27 06:13:03;;;;;;;1.08;0.32;;;23.30;38.60;;;;;;5014285;28;20397;-64
2021/05/27 06:15:30;;;;;;;0.60;0.30;;;23.30;38.60;;;;;;5014644;28;20442;-64
2021/05/27 06:17:58;;;;;;;0.57;0.25;;;23.30;38.60;;;;;;5014584;28;20389;-63
2021/05/27 06:20:25;;;;;;;0.40;0.20;;;23.30;39.20;;;;;;5013370;28;20405;-62
2021/05/27 06:22:51;;;;;;;0.30;0.20;;;23.30;38.60;;;;;;5014325;28;20423;-63
2021/05/27 06:25:18;;;;;;;0.60;0.20;;;23.30;38.60;;;;;;5013355;28;20730;-64
2021/05/27 06:27:44;;;;;;;1.10;0.20;;;23.30;38.60;;;;;;5014344;28;20423;-63
2021/05/27 06:30:10;;;;;;;0.68;0.20;;;23.30;38.60;;;;;;5014538;28;20377;-64
2021/05/27 06:32:37;;;;;;;0.40;0.20;;;23.30;38.60;;;;;;5014356;28;20389;-63
2021/05/27 06:35:09;;;;;;;0.43;0.20;;;23.30;38.60;;;;;;5013848;28;20385;-63
2021/05/27 06:37:37;;;;;;;0.70;0.30;;;23.30;38.50;;;;;;5014330;28;20420;-64
2021/05/27 06:40:08;;;;;;;0.73;0.30;;;23.30;38.50;;;;;;5014223;28;20385;-64
2021/05/27 06:42:35;;;;;;;0.50;0.20;;;23.30;38.50;;;;;;5013995;28;20436;-64
2021/05/27 06:45:01;;;;;;;0.70;0.30;;;23.30;38.50;;;;;;5013683;28;20400;-63
2021/05/27 06:47:27;;;;;;;0.40;0.25;;;23.30;38.50;;;;;;5014046;28;20416;-64
2021/05/27 06:49:52;;;;;;;0.67;0.30;;;23.30;38.60;;;;;;5013998;28;20796;-64
2021/05/27 06:52:18;;;;;;;0.50;0.30;;;23.30;38.50;;;;;;5013945;28;20419;-64
2021/05/27 06:54:44;;;;;;;0.40;0.20;;;23.30;38.50;;;;;;5013897;28;20404;-64
2021/05/27 06:57:09;;;;;;;0.65;0.30;;;23.30;38.50;;;;;;5013515;28;20887;-64
2021/05/27 06:59:35;;;;;;;0.60;0.20;;;23.30;38.60;;;;;;5013872;28;20438;-64
2021/05/27 07:02:01;;;;;;;0.52;0.30;;;23.30;38.50;;;;;;5013810;28;20426;-63
2021/05/27 07:04:26;;;;;;;0.50;0.20;;;23.30;38.60;;;;;;5013383;28;20419;-64
2021/05/27 07:06:52;;;;;;;0.60;0.30;;;23.30;38.50;;;;;;5012893;28;20456;-64
2021/05/27 07:09:19;;;;;;;0.60;0.22;;;23.30;38.50;;;;;;5013205;28;20393;-63
2021/05/27 07:11:46;;;;;;;0.73;0.40;;;23.30;38.50;;;;;;5012327;28;20495;-64
2021/05/27 07:14:12;;;;;;;0.60;0.20;;;23.30;38.50;;;;;;5013673;28;20396;-63
2021/05/27 07:16:38;;;;;;;0.40;0.20;;;23.30;38.50;;;;;;5013625;28;20396;-64
2021/05/27 07:19:03;;;;;;;0.50;0.20;;;23.30;38.50;;;;;;5012952;28;20822;-64
2021/05/27 07:21:29;;;;;;;0.57;0.30;;;23.30;38.50;;;;;;5013410;28;20393;-63
2021/05/27 07:23:55;;;;;;;0.50;0.20;;;23.20;38.50;;;;;;5013430;28;20459;-64
2021/05/27 07:26:21;;;;;;;0.28;0.20;;;23.20;38.50;;;;;;5012165;28;20470;-65
2021/05/27 07:28:46;;;;;;;0.50;0.30;;;23.20;38.50;;;;;;5013136;28;20413;-64
2021/05/27 07:31:12;;;;;;;0.47;0.10;;;23.20;38.50;;;;;;5012814;28;20392;-64
2021/05/27 07:33:39;;;;;;;0.40;0.20;;;23.20;38.50;;;;;;5013327;28;20919;-62
2021/05/27 07:36:05;;;;;;;0.60;0.20;;;23.20;38.50;;;;;;5012013;28;20455;-63
2021/05/27 07:38:31;;;;;;;0.60;0.30;;;23.20;38.50;;;;;;5013192;28;20449;-64
2021/05/27 07:40:58;;;;;;;0.40;0.20;;;23.20;38.40;;;;;;5012666;28;20874;-63
2021/05/27 07:43:23;;;;;;;0.50;0.22;;;23.20;38.40;;;;;;5012993;28;20460;-64
2021/05/27 07:45:49;;;;;;;0.50;0.30;;;23.20;38.40;;;;;;5013000;28;20428;-63
2021/05/27 07:48:15;;;;;;;0.50;0.30;;;23.20;38.40;;;;;;5012910;28;20427;-64
2021/05/27 07:50:40;;;;;;;0.50;0.20;;;23.20;38.40;;;;;;5012452;28;20396;-63
2021/05/27 07:53:08;;;;;;;0.80;0.20;;;23.20;38.50;;;;;;5012374;28;20954;-63
2021/05/27 07:55:34;;;;;;;0.60;0.38;;;23.20;38.40;;;;;;5013001;28;20393;-63
2021/05/27 07:58:00;;;;;;;0.65;0.30;;;23.20;38.50;;;;;;5012779;28;20476;-62
2021/05/27 08:00:26;;;;;;;0.50;0.20;;;23.20;38.50;;;;;;5012726;28;20393;-64
2021/05/27 08:02:51;;;;;;;0.40;0.20;;;23.20;38.40;;;;;;5012673;28;20400;-63
2021/05/27 08:05:19;;;;;;;0.30;0.20;;;23.20;38.50;;;;;;5012494;28;20738;-64
2021/05/27 08:07:46;;;;;;;0.60;0.30;;;23.20;38.50;;;;;;5012527;28;20434;-63
2021/05/27 08:10:13;;;;;;;0.60;0.30;;;23.20;38.40;;;;;;5011996;28;20687;-63
2021/05/27 08:12:40;;;;;;;0.50;0.20;;;23.20;38.40;;;;;;5012544;28;20400;-64
2021/05/27 08:15:07;;;;;;;0.50;0.30;;;23.20;38.40;;;;;;5012158;28;20980;-64
2021/05/27 08:17:33;;;;;;;0.28;0.20;;;23.20;38.40;;;;;;5012543;28;20895;-63
2021/05/27 08:19:58;;;;;;;0.47;0.30;;;23.20;38.50;;;;;;5012407;28;20431;-64
2021/05/27 08:22:27;;;;;;;0.55;0.20;;;23.20;38.40;;;;;;5012002;28;20393;-64
2021/05/27 08:24:56;;;;;;;0.40;0.20;;;23.20;38.50;;;;;;5012279;28;20393;-63
2021/05/27 08:27:22;;;;;;;0.40;0.20;;;23.20;38.50;;;;;;5012044;28;20470;-63
2021/05/27 08:29:48;;;;;;;0.57;0.30;;;23.20;38.50;;;;;;5012290;28;20389;-64
2021/05/27 08:32:14;;;;;;;0.68;0.30;;;23.20;38.50;;;;;;5012327;28;20468;-63
2021/05/27 08:34:40;;;;;;;0.80;0.20;;;23.20;38.50;;;;;;5011942;28;20416;-63
2021/05/27 08:37:07;;;;;;;0.40;0.20;;;23.20;38.50;;;;;;5011194;28;20491;-63
2021/05/27 08:39:33;;;;;;;0.30;0.20;;;23.20;38.50;;;;;;5012095;28;20876;-63
2021/05/27 08:42:00;;;;;;;0.50;0.20;;;23.20;38.50;;;;;;5011967;28;20397;-64
2021/05/27 08:44:26;;;;;;;0.40;0.20;;;23.10;38.50;;;;;;5012091;28;20392;-64
2021/05/27 08:46:52;;;;;;;0.40;0.20;;;23.20;38.50;;;;;;5011924;28;20405;-64
2021/05/27 08:49:19;;;;;;;0.45;0.20;;;23.10;38.50;;;;;;5010272;28;20401;-64
2021/05/27 08:51:45;;;;;;;0.50;0.20;;;23.10;38.50;;;;;;5011674;28;20857;-64
2021/05/27 08:54:10;;;;;;;0.60;0.20;;;23.10;38.50;;;;;;5011935;28;20404;-64
2021/05/27 08:56:37;;;;;;;0.50;0.30;;;23.10;38.50;;;;;;5011902;28;20389;-64
2021/05/27 08:59:03;;;;;;;0.30;0.20;;;23.10;38.50;;;;;;5011333;28;20385;-65
2021/05/27 09:01:29;;;;;;;0.68;0.30;;;23.20;38.50;;;;;;5011928;28;20481;-64
2021/05/27 09:03:55;;;;;;;0.50;0.30;;;23.10;38.50;;;;;;5011814;28;20911;-64
2021/05/27 09:06:21;;;;;;;0.60;0.32;;;23.10;38.50;;;;;;5011789;28;20392;-63
2021/05/27 09:08:47;;;;;;;0.30;0.20;;;23.10;38.50;;;;;;5011710;28;20402;-63
2021/05/27 09:11:20;;;;;;;0.60;0.30;;;23.20;38.50;;;;;;5010122;28;20769;-63
2021/05/27 09:14:01;;;;;;;0.50;0.30;;;23.10;38.50;;;;;;5011775;28;20483;-63
2021/05/27 09:16:28;;;;;;;0.50;0.30;;;23.10;38.50;;;;;;5011828;28;20393;-63
2021/05/27 09:18:54;;;;;;;0.30;0.20;;;23.10;38.50;;;;;;5010420;28;20416;-64
2021/05/27 09:21:37;;;;;;;0.40;0.22;;;23.20;38.50;;;;;;5011563;28;20821;-62
2021/05/27 09:24:04;;;;;;;0.40;0.30;;;23.20;38.50;;;;;;5011556;28;20389;-64
2021/05/27 09:26:29;;;;;;;0.70;0.20;;;23.20;38.50;;;;;;5011513;28;20389;-64
2021/05/27 09:29:12;;;;;;;0.55;0.28;;;23.20;38.50;;;;;;5011588;28;20797;-63
2021/05/27 09:31:56;;;;;;;0.40;0.20;;;23.10;38.50;;;;;;5011527;28;20785;-63
2021/05/27 09:34:38;;;;;;;0.68;0.20;;;23.20;38.50;;;;;;5011680;28;20399;-64
2021/05/27 09:37:04;;;;;;;0.50;0.30;;;23.10;38.40;;;;;;5014936;28;20384;-63
2021/05/27 09:39:40;;;;;;;0.60;0.20;;;23.10;38.50;;;;;;5015523;28;20881;-63
2021/05/27 09:42:09;;;;;;;0.73;0.30;;;23.10;38.50;;;;;;5015067;28;20396;-63
2021/05/27 09:44:35;;;;;;;0.50;0.20;;;23.10;38.50;;;;;;5015424;28;20408;-63
2021/05/27 09:47:00;;;;;;;0.50;0.30;;;23.10;38.50;;;;;;5013643;28;20424;-64
2021/05/27 09:49:28;;;;;;;1.00;0.30;;;23.10;38.50;;;;;;5014945;28;20404;-64
2021/05/27 09:51:55;;;;;;;0.47;0.20;;;23.10;38.50;;;;;;5014494;28;20886;-63
2021/05/27 09:54:22;;;;;;;0.43;0.20;;;23.10;38.60;;;;;;5014655;28;20500;-64
2021/05/27 09:56:49;;;;;;;0.50;0.30;;;23.10;38.60;;;;;;5014869;28;20875;-63
2021/05/27 09:59:16;;;;;;;0.43;0.30;;;23.10;38.60;;;;;;5014591;28;20407;-64
2021/05/27 10:02:12;;;;;;;1.20;0.40;;;23.10;38.50;;;;;;5014874;28;20403;-63
2021/05/27 10:04:58;;;;;;;0.43;0.30;;;23.10;38.60;;;;;;5014830;28;20440;-63
2021/05/27 10:07:56;;;;;;;0.57;0.30;;;23.10;38.50;;;;;;5014423;28;20459;-64
2021/05/27 10:10:24;;;;;;;0.50;0.30;;;23.10;38.60;;;;;;5013512;28;20401;-62
2021/05/27 10:12:54;;;;;;;0.40;0.30;;;23.10;38.60;;;;;;5014711;28;20416;-64
2021/05/27 10:15:22;;;;;;;0.75;0.40;;;23.10;38.50;;;;;;5014213;28;20796;-64
2021/05/27 10:17:50;;;;;;;0.68;0.30;;;23.10;38.50;;;;;;5014659;28;20393;-64
2021/05/27 10:20:17;;;;;;;0.38;0.20;;;23.10;38.50;;;;;;5014702;28;20397;-64
2021/05/27 10:22:44;;;;;;;0.70;0.30;;;23.10;38.50;;;;;;5014534;28;20399;-64
2021/05/27 10:25:14;;;;;;;0.75;0.20;;;23.10;38.50;;;;;;5014268;28;20389;-64
2021/05/27 10:27:42;;;;;;;0.43;0.20;;;23.10;38.60;;;;;;5014424;28;20417;-64
2021/05/27 10:30:09;;;;;;;0.57;0.30;;;23.10;39.10;;;;;;5014534;28;20472;-59
2021/05/27 10:32:41;;;;;;;0.80;0.30;;;23.10;38.60;;;;;;5014400;28;20847;-64
2021/05/27 10:35:08;;;;;;;0.50;0.30;;;23.10;38.50;;;;;;5014006;28;20439;-64
2021/05/27 10:37:34;;;;;;;0.80;0.30;;;23.10;38.50;;;;;;5014263;28;20835;-64
2021/05/27 10:40:23;;;;;;;0.53;0.30;;;23.10;38.60;;;;;;5014152;28;20488;-59
2021/05/27 10:43:13;;;;;;;0.60;0.40;;;23.10;38.50;;;;;;5013380;28;20428;-64
2021/05/27 10:45:57;;;;;;;0.60;0.30;;;23.10;38.50;;;;;;5013676;28;20745;-63
2021/05/27 10:48:26;;;;;;;0.50;0.30;;;23.10;38.50;;;;;;5013984;28;20753;-63
2021/05/27 10:53:42;;;;;;;1.13;0.40;;;23.10;38.60;;;;;;5013747;28;20924;-64
2021/05/27 10:56:17;;;;;;;0.55;0.30;;;23.10;38.50;;;;;;5013912;28;20388;-64
2021/05/27 10:58:46;;;;;;;0.93;0.37;;;23.10;38.50;;;;;;5013800;28;20393;-64
2021/05/27 11:01:16;;;;;;;0.60;0.30;;;23.10;38.50;;;;;;5013491;28;20408;-63
2021/05/27 11:03:43;;;;;;;1.80;0.70;;;23.10;38.50;;;;;;5013753;28;20941;-64
2021/05/27 11:06:23;;;;;;;0.80;0.43;;;23.10;38.60;;;;;;5013653;28;20935;-64
2021/05/27 11:09:09;;;;;;;1.65;0.45;;;23.10;38.60;;;;;;5013212;28;20413;-64
2021/05/27 11:11:45;;;;;;;1.38;0.40;;;23.10;38.60;;;;;;5013505;28;20387;-64
2021/05/27 11:14:24;;;;;;;1.35;0.43;;;23.10;38.60;;;;;;5013554;28;20773;-64
2021/05/27 11:17:05;;;;;;;0.97;0.33;;;23.10;38.60;;;;;;5013579;28;20394;-63
2021/05/27 11:19:56;;;;;;;1.35;0.45;;;23.10;38.60;;;;;;5012373;28;20393;-63
2021/05/27 11:22:33;;;;;;;1.40;0.45;;;23.00;38.50;;;;;;5011186;28;20416;-65
2021/05/27 11:25:08;;;;;;;1.30;0.38;;;23.00;38.60;;;;;;5006970;28;20401;-63
2021/05/27 11:27:45;;;;;;;1.20;0.33;;;23.00;38.50;;;;;;5010727;28;20494;-60
2021/05/27 11:30:41;;;;;;;1.02;0.30;;;23.00;38.40;;;;;;5009687;28;20381;-63
2021/05/27 11:33:31;;;;;;;0.98;0.30;;;23.10;38.50;;;;;;5010579;28;20384;-61
2021/05/27 11:36:00;;;;;;;0.90;0.30;;;23.10;38.50;;;;;;5010608;28;20439;-59
2021/05/27 11:38:32;;;;;;;1.00;0.40;;;23.10;38.50;;;;;;5010582;28;20399;-63
2021/05/27 11:41:10;;;;;;;0.60;0.30;;;23.10;38.50;;;;;;5010422;28;20385;-60
2021/05/27 11:43:37;;;;;;;0.90;0.40;;;23.10;38.50;;;;;;5010434;28;20432;-63
2021/05/27 11:46:06;;;;;;;1.05;0.55;;;23.10;38.40;;;;;;5011770;28;20399;-64
2021/05/27 11:48:38;;;;;;;0.90;0.40;;;23.10;38.50;;;;;;5011606;28;20416;-64
2021/05/27 11:51:06;;;;;;;1.70;0.40;;;23.10;38.40;;;;;;5010332;28;20407;-65
2021/05/27 11:53:39;;;;;;;0.70;0.30;;;23.10;38.40;;;;;;5011125;28;20419;-64
2021/05/27 11:56:05;;;;;;;0.88;0.38;;;23.10;38.40;;;;;;5011441;28;20420;-64
2021/05/27 11:58:42;;;;;;;0.70;0.30;;;23.10;38.40;;;;;;5009304;28;20456;-63
2021/05/27 12:01:13;;;;;;;0.80;0.40;;;23.00;38.30;;;;;;5011214;28;20393;-64
2021/05/27 12:03:39;;;;;;;0.90;0.30;;;23.00;38.40;;;;;;5010067;28;20531;-64
2021/05/27 12:06:05;;;;;;;0.50;0.20;;;23.00;38.50;;;;;;5011287;28;20491;-64
2021/05/27 12:08:40;;;;;;;0.60;0.30;;;23.10;38.50;;;;;;5011212;28;20474;-64
2021/05/27 12:11:06;;;;;;;0.60;0.30;;;23.10;38.40;;;;;;5011068;28;20404;-61
2021/05/27 12:13:31;;;;;;;0.80;0.40;;;23.00;38.40;;;;;;5011091;28;20945;-64
2021/05/27 12:15:57;;;;;;;0.82;0.40;;;23.00;38.40;;;;;;5011099;28;21226;-64
2021/05/27 12:18:23;;;;;;;0.60;0.30;;;23.00;38.40;;;;;;5011236;28;20398;-63
2021/05/27 12:20:50;;;;;;;0.50;0.30;;;23.00;38.40;;;;;;5011012;28;21209;-64
2021/05/27 12:23:17;;;;;;;0.60;0.20;;;23.00;38.40;;;;;;5010179;28;20485;-64
2021/05/27 12:25:45;;;;;;;0.82;0.40;;;23.00;38.40;;;;;;5010553;28;20483;-64
2021/05/27 12:28:15;;;;;;;0.50;0.30;;;23.00;38.50;;;;;;5010798;28;20848;-61
2021/05/27 12:30:44;;;;;;;0.55;0.30;;;23.00;38.40;;;;;;5010811;28;20395;-61
2021/05/27 12:33:18;;;;;;;0.77;0.30;;;23.10;38.50;;;;;;5010591;28;20424;-60
2021/05/27 12:35:44;;;;;;;0.80;0.40;;;23.00;38.40;;;;;;5010648;28;20387;-64
2021/05/27 12:38:47;;;;;;;0.70;0.30;;;23.10;38.50;;;;;;5010763;28;20456;-62
2021/05/27 12:41:14;;;;;;;0.98;0.30;;;23.10;38.50;;;;;;5003539;28;20947;-60
2021/05/27 12:43:46;;;;;;;0.80;0.30;;;23.10;38.50;;;;;;5010473;28;20428;-64
2021/05/27 12:46:12;;;;;;;0.60;0.30;;;23.10;38.40;;;;;;5010694;28;20388;-63
2021/05/27 12:48:50;;;;;;;0.60;0.30;;;23.10;38.50;;;;;;5010464;28;20424;-63
2021/05/27 12:51:17;;;;;;;0.77;0.32;;;23.10;38.40;;;;;;5010000;28;20393;-64
2021/05/27 12:53:46;;;;;;;0.70;0.30;;;23.10;38.40;;;;;;5010485;28;20393;-64
2021/05/27 12:56:21;;;;;;;0.37;0.20;;;23.10;38.50;;;;;;5010662;28;20469;-63
2021/05/27 12:58:55;;;;;;;0.68;0.30;;;23.10;38.50;;;;;;5010620;28;20919;-64
2021/05/27 13:01:38;;;;;;;0.52;0.20;;;23.10;38.40;;;;;;5008736;28;20393;-62
2021/05/27 13:04:22;;;;;;;0.45;0.30;;;23.10;38.30;;;;;;5010615;28;20388;-64